sensor_id;sensor_type;location;lat;lon;timestamp;temperature;humidity
68912;SHT31;55953;51.650;-0.522;2023-11-21T00:00:56;10.49;86.70
68912;SHT31;55953;51.650;-0.522;2023-11-21T00:03:38;10.47;86.99
68912;SHT31;55953;51.650;-0.522;2023-11-21T00:06:06;10.47;86.82
68912;SHT31;55953;51.650;-0.522;2023-11-21T00:08:36;10.48;87.00
68912;SHT31;55953;51.650;-0.522;2023-11-21T00:11:05;10.48;86.99
68912;SHT31;55953;51.650;-0.522;2023-11-21T00:13:33;10.51;87.03
68912;SHT31;55953;51.650;-0.522;2023-11-21T00:16:02;10.51;86.99
68912;SHT31;55953;51.650;-0.522;2023-11-21T00:18:31;10.53;86.99
68912;SHT31;55953;51.650;-0.522;2023-11-21T00:20:59;10.54;86.84
68912;SHT31;55953;51.650;-0.522;2023-11-21T00:23:27;10.58;86.78
68912;SHT31;55953;51.650;-0.522;2023-11-21T00:25:55;10.60;86.82
68912;SHT31;55953;51.650;-0.522;2023-11-21T00:28:23;10.59;87.02
68912;SHT31;55953;51.650;-0.522;2023-11-21T00:30:51;10.60;87.23
68912;SHT31;55953;51.650;-0.522;2023-11-21T00:33:18;10.59;87.22
68912;SHT31;55953;51.650;-0.522;2023-11-21T00:35:47;10.56;87.41
68912;SHT31;55953;51.650;-0.522;2023-11-21T00:38:14;10.57;87.30
68912;SHT31;55953;51.650;-0.522;2023-11-21T00:40:42;10.56;87.57
68912;SHT31;55953;51.650;-0.522;2023-11-21T00:43:10;10.56;87.44
68912;SHT31;55953;51.650;-0.522;2023-11-21T00:45:38;10.58;87.46
68912;SHT31;55953;51.650;-0.522;2023-11-21T00:48:07;10.59;87.73
68912;SHT31;55953;51.650;-0.522;2023-11-21T00:50:35;10.57;87.62
68912;SHT31;55953;51.650;-0.522;2023-11-21T00:53:03;10.56;87.84
68912;SHT31;55953;51.650;-0.522;2023-11-21T00:55:31;10.56;87.72
68912;SHT31;55953;51.650;-0.522;2023-11-21T00:57:59;10.56;87.93
68912;SHT31;55953;51.650;-0.522;2023-11-21T01:00:27;10.52;88.33
68912;SHT31;55953;51.650;-0.522;2023-11-21T01:02:55;10.49;88.60
68912;SHT31;55953;51.650;-0.522;2023-11-21T01:05:23;10.46;88.88
68912;SHT31;55953;51.650;-0.522;2023-11-21T01:07:52;10.46;88.79
68912;SHT31;55953;51.650;-0.522;2023-11-21T01:10:20;10.47;88.92
68912;SHT31;55953;51.650;-0.522;2023-11-21T01:12:48;10.46;88.77
68912;SHT31;55953;51.650;-0.522;2023-11-21T01:15:16;10.49;88.83
68912;SHT31;55953;51.650;-0.522;2023-11-21T01:17:44;10.48;88.80
68912;SHT31;55953;51.650;-0.522;2023-11-21T01:20:12;10.49;88.54
68912;SHT31;55953;51.650;-0.522;2023-11-21T01:22:41;10.52;88.21
68912;SHT31;55953;51.650;-0.522;2023-11-21T01:25:09;10.53;88.03
68912;SHT31;55953;51.650;-0.522;2023-11-21T01:27:38;10.53;87.91
68912;SHT31;55953;51.650;-0.522;2023-11-21T01:30:06;10.53;87.76
68912;SHT31;55953;51.650;-0.522;2023-11-21T01:32:38;10.53;87.76
68912;SHT31;55953;51.650;-0.522;2023-11-21T01:35:07;10.53;87.76
68912;SHT31;55953;51.650;-0.522;2023-11-21T01:37:37;10.52;87.82
68912;SHT31;55953;51.650;-0.522;2023-11-21T01:40:06;10.53;87.68
68912;SHT31;55953;51.650;-0.522;2023-11-21T01:42:38;10.55;87.63
68912;SHT31;55953;51.650;-0.522;2023-11-21T01:45:06;10.56;87.67
68912;SHT31;55953;51.650;-0.522;2023-11-21T01:47:35;10.57;87.61
68912;SHT31;55953;51.650;-0.522;2023-11-21T01:50:04;10.59;87.58
68912;SHT31;55953;51.650;-0.522;2023-11-21T01:52:40;10.61;87.55
68912;SHT31;55953;51.650;-0.522;2023-11-21T01:55:08;10.63;87.44
68912;SHT31;55953;51.650;-0.522;2023-11-21T01:57:37;10.64;87.54
68912;SHT31;55953;51.650;-0.522;2023-11-21T02:00:09;10.63;87.57
68912;SHT31;55953;51.650;-0.522;2023-11-21T02:02:44;10.63;87.69
68912;SHT31;55953;51.650;-0.522;2023-11-21T02:05:17;10.64;87.70
68912;SHT31;55953;51.650;-0.522;2023-11-21T02:07:46;10.68;87.55
68912;SHT31;55953;51.650;-0.522;2023-11-21T02:10:19;10.70;87.57
68912;SHT31;55953;51.650;-0.522;2023-11-21T02:12:52;10.70;87.70
68912;SHT31;55953;51.650;-0.522;2023-11-21T02:15:21;10.67;87.88
68912;SHT31;55953;51.650;-0.522;2023-11-21T02:17:50;10.68;87.80
68912;SHT31;55953;51.650;-0.522;2023-11-21T02:20:20;10.69;87.74
68912;SHT31;55953;51.650;-0.522;2023-11-21T02:22:53;10.68;87.86
68912;SHT31;55953;51.650;-0.522;2023-11-21T02:25:28;10.68;87.79
68912;SHT31;55953;51.650;-0.522;2023-11-21T02:28:02;10.67;87.72
68912;SHT31;55953;51.650;-0.522;2023-11-21T02:30:31;10.69;87.57
68912;SHT31;55953;51.650;-0.522;2023-11-21T02:33:02;10.70;87.51
68912;SHT31;55953;51.650;-0.522;2023-11-21T02:35:31;10.74;87.38
68912;SHT31;55953;51.650;-0.522;2023-11-21T02:37:59;10.74;87.30
68912;SHT31;55953;51.650;-0.522;2023-11-21T02:40:27;10.76;87.36
68912;SHT31;55953;51.650;-0.522;2023-11-21T02:42:55;10.77;87.34
68912;SHT31;55953;51.650;-0.522;2023-11-21T02:45:26;10.77;87.30
68912;SHT31;55953;51.650;-0.522;2023-11-21T02:47:54;10.76;87.48
68912;SHT31;55953;51.650;-0.522;2023-11-21T02:50:25;10.77;87.40
68912;SHT31;55953;51.650;-0.522;2023-11-21T02:52:53;10.79;87.40
68912;SHT31;55953;51.650;-0.522;2023-11-21T02:55:21;10.79;87.38
68912;SHT31;55953;51.650;-0.522;2023-11-21T02:57:49;10.77;87.38
68912;SHT31;55953;51.650;-0.522;2023-11-21T03:00:18;10.77;87.41
68912;SHT31;55953;51.650;-0.522;2023-11-21T03:02:46;10.70;87.30
68912;SHT31;55953;51.650;-0.522;2023-11-21T03:05:15;10.66;87.05
68912;SHT31;55953;51.650;-0.522;2023-11-21T03:07:43;10.59;87.02
68912;SHT31;55953;51.650;-0.522;2023-11-21T03:10:11;10.54;86.74
68912;SHT31;55953;51.650;-0.522;2023-11-21T03:12:39;10.49;86.82
68912;SHT31;55953;51.650;-0.522;2023-11-21T03:15:08;10.45;86.81
68912;SHT31;55953;51.650;-0.522;2023-11-21T03:17:36;10.41;86.75
68912;SHT31;55953;51.650;-0.522;2023-11-21T03:20:05;10.41;86.85
68912;SHT31;55953;51.650;-0.522;2023-11-21T03:22:38;10.39;86.84
68912;SHT31;55953;51.650;-0.522;2023-11-21T03:25:07;10.38;86.76
68912;SHT31;55953;51.650;-0.522;2023-11-21T03:27:38;10.38;86.65
68912;SHT31;55953;51.650;-0.522;2023-11-21T03:30:07;10.40;86.56
68912;SHT31;55953;51.650;-0.522;2023-11-21T03:32:37;10.41;86.30
68912;SHT31;55953;51.650;-0.522;2023-11-21T03:35:05;10.43;86.37
68912;SHT31;55953;51.650;-0.522;2023-11-21T03:37:34;10.42;86.19
68912;SHT31;55953;51.650;-0.522;2023-11-21T03:40:02;10.41;86.25
68912;SHT31;55953;51.650;-0.522;2023-11-21T03:42:31;10.37;86.14
68912;SHT31;55953;51.650;-0.522;2023-11-21T03:44:59;10.36;86.09
68912;SHT31;55953;51.650;-0.522;2023-11-21T03:47:27;10.31;85.97
68912;SHT31;55953;51.650;-0.522;2023-11-21T03:49:56;10.29;85.77
68912;SHT31;55953;51.650;-0.522;2023-11-21T03:52:24;10.28;85.89
68912;SHT31;55953;51.650;-0.522;2023-11-21T03:54:52;10.27;86.06
68912;SHT31;55953;51.650;-0.522;2023-11-21T03:57:20;10.24;86.21
68912;SHT31;55953;51.650;-0.522;2023-11-21T03:59:49;10.20;86.47
68912;SHT31;55953;51.650;-0.522;2023-11-21T04:02:16;10.16;86.61
68912;SHT31;55953;51.650;-0.522;2023-11-21T04:04:44;10.12;86.88
68912;SHT31;55953;51.650;-0.522;2023-11-21T04:07:13;10.07;87.06
68912;SHT31;55953;51.650;-0.522;2023-11-21T04:09:41;10.06;87.05
68912;SHT31;55953;51.650;-0.522;2023-11-21T04:12:08;10.07;87.13
68912;SHT31;55953;51.650;-0.522;2023-11-21T04:14:37;10.05;87.25
68912;SHT31;55953;51.650;-0.522;2023-11-21T04:17:05;10.02;87.35
68912;SHT31;55953;51.650;-0.522;2023-11-21T04:19:34;10.03;87.39
68912;SHT31;55953;51.650;-0.522;2023-11-21T04:22:02;10.03;87.37
68912;SHT31;55953;51.650;-0.522;2023-11-21T04:24:31;10.01;87.41
68912;SHT31;55953;51.650;-0.522;2023-11-21T04:26:59;9.99;87.43
68912;SHT31;55953;51.650;-0.522;2023-11-21T04:29:27;9.98;87.40
68912;SHT31;55953;51.650;-0.522;2023-11-21T04:31:54;9.97;87.61
68912;SHT31;55953;51.650;-0.522;2023-11-21T04:34:22;9.94;87.68
68912;SHT31;55953;51.650;-0.522;2023-11-21T04:36:50;9.90;87.63
68912;SHT31;55953;51.650;-0.522;2023-11-21T04:39:18;9.85;87.68
68912;SHT31;55953;51.650;-0.522;2023-11-21T04:41:47;9.80;87.56
68912;SHT31;55953;51.650;-0.522;2023-11-21T04:44:15;9.76;87.56
68912;SHT31;55953;51.650;-0.522;2023-11-21T04:46:43;9.74;87.49
68912;SHT31;55953;51.650;-0.522;2023-11-21T04:49:11;9.72;86.94
68912;SHT31;55953;51.650;-0.522;2023-11-21T04:51:39;9.70;86.80
68912;SHT31;55953;51.650;-0.522;2023-11-21T04:54:07;9.69;86.66
68912;SHT31;55953;51.650;-0.522;2023-11-21T04:56:35;9.68;86.55
68912;SHT31;55953;51.650;-0.522;2023-11-21T04:59:02;9.70;86.56
68912;SHT31;55953;51.650;-0.522;2023-11-21T05:01:32;9.73;86.68
68912;SHT31;55953;51.650;-0.522;2023-11-21T05:04:00;9.71;86.50
68912;SHT31;55953;51.650;-0.522;2023-11-21T05:06:28;9.73;86.52
68912;SHT31;55953;51.650;-0.522;2023-11-21T05:08:55;9.72;86.42
68912;SHT31;55953;51.650;-0.522;2023-11-21T05:11:27;9.73;86.39
68912;SHT31;55953;51.650;-0.522;2023-11-21T05:13:59;9.74;86.18
68912;SHT31;55953;51.650;-0.522;2023-11-21T05:16:29;9.73;85.90
68912;SHT31;55953;51.650;-0.522;2023-11-21T05:18:57;9.72;85.84
68912;SHT31;55953;51.650;-0.522;2023-11-21T05:21:27;9.73;85.75
68912;SHT31;55953;51.650;-0.522;2023-11-21T05:23:58;9.74;85.42
68912;SHT31;55953;51.650;-0.522;2023-11-21T05:26:26;9.77;85.42
68912;SHT31;55953;51.650;-0.522;2023-11-21T05:28:54;9.79;85.48
68912;SHT31;55953;51.650;-0.522;2023-11-21T05:31:22;9.81;85.52
68912;SHT31;55953;51.650;-0.522;2023-11-21T05:33:50;9.82;85.59
68912;SHT31;55953;51.650;-0.522;2023-11-21T05:36:17;9.83;85.58
68912;SHT31;55953;51.650;-0.522;2023-11-21T05:38:45;9.82;85.26
68912;SHT31;55953;51.650;-0.522;2023-11-21T05:41:13;9.77;84.84
68912;SHT31;55953;51.650;-0.522;2023-11-21T05:43:42;9.76;84.93
68912;SHT31;55953;51.650;-0.522;2023-11-21T05:46:11;9.74;84.39
68912;SHT31;55953;51.650;-0.522;2023-11-21T05:48:40;9.73;84.28
68912;SHT31;55953;51.650;-0.522;2023-11-21T05:51:09;9.69;83.73
68912;SHT31;55953;51.650;-0.522;2023-11-21T05:53:37;9.67;83.48
68912;SHT31;55953;51.650;-0.522;2023-11-21T05:56:05;9.65;83.50
68912;SHT31;55953;51.650;-0.522;2023-11-21T05:58:33;9.64;83.60
68912;SHT31;55953;51.650;-0.522;2023-11-21T06:01:02;9.62;83.38
68912;SHT31;55953;51.650;-0.522;2023-11-21T06:03:37;9.58;83.03
68912;SHT31;55953;51.650;-0.522;2023-11-21T06:06:05;9.55;82.64
68912;SHT31;55953;51.650;-0.522;2023-11-21T06:08:34;9.52;82.45
68912;SHT31;55953;51.650;-0.522;2023-11-21T06:11:02;9.53;82.69
68912;SHT31;55953;51.650;-0.522;2023-11-21T06:13:30;9.52;82.41
68912;SHT31;55953;51.650;-0.522;2023-11-21T06:15:58;9.55;82.90
68912;SHT31;55953;51.650;-0.522;2023-11-21T06:18:27;9.53;82.41
68912;SHT31;55953;51.650;-0.522;2023-11-21T06:20:55;9.53;82.64
68912;SHT31;55953;51.650;-0.522;2023-11-21T06:23:23;9.51;82.14
68912;SHT31;55953;51.650;-0.522;2023-11-21T06:25:51;9.50;82.20
68912;SHT31;55953;51.650;-0.522;2023-11-21T06:28:19;9.48;81.86
68912;SHT31;55953;51.650;-0.522;2023-11-21T06:30:47;9.48;81.84
68912;SHT31;55953;51.650;-0.522;2023-11-21T06:33:16;9.44;81.88
68912;SHT31;55953;51.650;-0.522;2023-11-21T06:35:44;9.43;81.94
68912;SHT31;55953;51.650;-0.522;2023-11-21T06:38:12;9.44;81.91
68912;SHT31;55953;51.650;-0.522;2023-11-21T06:40:40;9.42;81.60
68912;SHT31;55953;51.650;-0.522;2023-11-21T06:43:08;9.40;81.47
68912;SHT31;55953;51.650;-0.522;2023-11-21T06:45:36;9.39;81.63
68912;SHT31;55953;51.650;-0.522;2023-11-21T06:48:03;9.40;81.86
68912;SHT31;55953;51.650;-0.522;2023-11-21T06:50:32;9.41;81.97
68912;SHT31;55953;51.650;-0.522;2023-11-21T06:53:00;9.42;81.94
68912;SHT31;55953;51.650;-0.522;2023-11-21T06:55:30;9.38;81.70
68912;SHT31;55953;51.650;-0.522;2023-11-21T06:57:58;9.38;81.48
68912;SHT31;55953;51.650;-0.522;2023-11-21T07:00:27;9.39;81.64
68912;SHT31;55953;51.650;-0.522;2023-11-21T07:02:55;9.39;81.65
68912;SHT31;55953;51.650;-0.522;2023-11-21T07:05:23;9.39;81.56
68912;SHT31;55953;51.650;-0.522;2023-11-21T07:07:51;9.40;81.65
68912;SHT31;55953;51.650;-0.522;2023-11-21T07:10:21;9.39;81.77
68912;SHT31;55953;51.650;-0.522;2023-11-21T07:12:49;9.39;81.98
68912;SHT31;55953;51.650;-0.522;2023-11-21T07:15:18;9.36;81.81
68912;SHT31;55953;51.650;-0.522;2023-11-21T07:17:47;9.36;81.94
68912;SHT31;55953;51.650;-0.522;2023-11-21T07:20:16;9.37;81.94
68912;SHT31;55953;51.650;-0.522;2023-11-21T07:22:44;9.38;82.07
68912;SHT31;55953;51.650;-0.522;2023-11-21T07:25:13;9.40;82.15
68912;SHT31;55953;51.650;-0.522;2023-11-21T07:27:40;9.42;82.46
68912;SHT31;55953;51.650;-0.522;2023-11-21T07:30:09;9.41;82.36
68912;SHT31;55953;51.650;-0.522;2023-11-21T07:32:38;9.43;82.47
68912;SHT31;55953;51.650;-0.522;2023-11-21T07:35:08;9.42;82.54
68912;SHT31;55953;51.650;-0.522;2023-11-21T07:37:36;9.42;82.57
68912;SHT31;55953;51.650;-0.522;2023-11-21T07:40:05;9.41;82.42
68912;SHT31;55953;51.650;-0.522;2023-11-21T07:42:36;9.43;82.62
68912;SHT31;55953;51.650;-0.522;2023-11-21T07:45:05;9.45;82.41
68912;SHT31;55953;51.650;-0.522;2023-11-21T07:47:34;9.45;82.18
68912;SHT31;55953;51.650;-0.522;2023-11-21T07:50:03;9.48;82.30
68912;SHT31;55953;51.650;-0.522;2023-11-21T07:52:32;9.49;82.24
68912;SHT31;55953;51.650;-0.522;2023-11-21T07:54:59;9.52;82.45
68912;SHT31;55953;51.650;-0.522;2023-11-21T07:57:27;9.53;82.10
68912;SHT31;55953;51.650;-0.522;2023-11-21T07:59:55;9.52;82.30
68912;SHT31;55953;51.650;-0.522;2023-11-21T08:02:23;9.52;82.11
68912;SHT31;55953;51.650;-0.522;2023-11-21T08:04:52;9.54;82.03
68912;SHT31;55953;51.650;-0.522;2023-11-21T08:07:20;9.53;81.75
68912;SHT31;55953;51.650;-0.522;2023-11-21T08:09:47;9.56;81.74
68912;SHT31;55953;51.650;-0.522;2023-11-21T08:12:17;9.61;81.88
68912;SHT31;55953;51.650;-0.522;2023-11-21T08:14:45;9.64;81.80
68912;SHT31;55953;51.650;-0.522;2023-11-21T08:17:13;9.69;81.75
68912;SHT31;55953;51.650;-0.522;2023-11-21T08:19:44;9.71;81.66
68912;SHT31;55953;51.650;-0.522;2023-11-21T08:22:16;9.74;81.75
68912;SHT31;55953;51.650;-0.522;2023-11-21T08:24:45;9.77;81.79
68912;SHT31;55953;51.650;-0.522;2023-11-21T08:27:14;9.81;81.90
68912;SHT31;55953;51.650;-0.522;2023-11-21T08:29:43;9.82;82.09
68912;SHT31;55953;51.650;-0.522;2023-11-21T08:32:11;9.79;82.28
68912;SHT31;55953;51.650;-0.522;2023-11-21T08:34:39;9.77;82.51
68912;SHT31;55953;51.650;-0.522;2023-11-21T08:37:10;9.75;82.66
68912;SHT31;55953;51.650;-0.522;2023-11-21T08:39:38;9.72;82.86
68912;SHT31;55953;51.650;-0.522;2023-11-21T08:42:06;9.73;83.13
68912;SHT31;55953;51.650;-0.522;2023-11-21T08:44:34;9.71;83.30
68912;SHT31;55953;51.650;-0.522;2023-11-21T08:47:01;9.71;83.40
68912;SHT31;55953;51.650;-0.522;2023-11-21T08:49:32;9.68;83.44
68912;SHT31;55953;51.650;-0.522;2023-11-21T08:52:01;9.66;83.52
68912;SHT31;55953;51.650;-0.522;2023-11-21T08:54:29;9.58;83.80
68912;SHT31;55953;51.650;-0.522;2023-11-21T08:56:57;9.56;83.98
68912;SHT31;55953;51.650;-0.522;2023-11-21T08:59:28;9.61;83.97
68912;SHT31;55953;51.650;-0.522;2023-11-21T09:01:55;9.63;83.93
68912;SHT31;55953;51.650;-0.522;2023-11-21T09:04:23;9.67;83.87
68912;SHT31;55953;51.650;-0.522;2023-11-21T09:06:51;9.70;83.79
68912;SHT31;55953;51.650;-0.522;2023-11-21T09:09:19;9.74;83.80
68912;SHT31;55953;51.650;-0.522;2023-11-21T09:11:47;9.75;83.73
68912;SHT31;55953;51.650;-0.522;2023-11-21T09:14:16;9.79;83.77
68912;SHT31;55953;51.650;-0.522;2023-11-21T09:16:45;9.88;83.78
68912;SHT31;55953;51.650;-0.522;2023-11-21T09:19:13;9.93;83.41
68912;SHT31;55953;51.650;-0.522;2023-11-21T09:21:41;9.92;83.39
68912;SHT31;55953;51.650;-0.522;2023-11-21T09:24:09;9.93;83.57
68912;SHT31;55953;51.650;-0.522;2023-11-21T09:26:37;9.99;83.62
68912;SHT31;55953;51.650;-0.522;2023-11-21T09:29:04;9.91;83.81
68912;SHT31;55953;51.650;-0.522;2023-11-21T09:31:33;9.90;83.92
68912;SHT31;55953;51.650;-0.522;2023-11-21T09:34:01;9.90;84.06
68912;SHT31;55953;51.650;-0.522;2023-11-21T09:36:29;10.00;83.93
68912;SHT31;55953;51.650;-0.522;2023-11-21T09:38:58;10.01;83.86
68912;SHT31;55953;51.650;-0.522;2023-11-21T09:41:34;10.01;83.92
68912;SHT31;55953;51.650;-0.522;2023-11-21T09:44:16;10.06;83.97
68912;SHT31;55953;51.650;-0.522;2023-11-21T09:46:47;10.09;84.01
68912;SHT31;55953;51.650;-0.522;2023-11-21T09:49:18;10.19;83.90
68912;SHT31;55953;51.650;-0.522;2023-11-21T09:51:54;10.20;83.87
68912;SHT31;55953;51.650;-0.522;2023-11-21T09:54:26;10.28;84.04
68912;SHT31;55953;51.650;-0.522;2023-11-21T09:56:57;10.30;83.87
68912;SHT31;55953;51.650;-0.522;2023-11-21T09:59:30;10.32;83.90
68912;SHT31;55953;51.650;-0.522;2023-11-21T10:02:03;10.26;84.04
68912;SHT31;55953;51.650;-0.522;2023-11-21T10:04:31;10.24;84.32
68912;SHT31;55953;51.650;-0.522;2023-11-21T10:06:59;10.31;84.39
68912;SHT31;55953;51.650;-0.522;2023-11-21T10:09:27;10.32;84.23
68912;SHT31;55953;51.650;-0.522;2023-11-21T10:11:55;10.32;84.50
68912;SHT31;55953;51.650;-0.522;2023-11-21T10:14:25;10.35;84.65
68912;SHT31;55953;51.650;-0.522;2023-11-21T10:16:56;10.33;84.65
68912;SHT31;55953;51.650;-0.522;2023-11-21T10:19:25;10.36;84.64
68912;SHT31;55953;51.650;-0.522;2023-11-21T10:21:55;10.43;84.65
68912;SHT31;55953;51.650;-0.522;2023-11-21T10:24:25;10.50;84.50
68912;SHT31;55953;51.650;-0.522;2023-11-21T10:26:52;10.53;84.53
68912;SHT31;55953;51.650;-0.522;2023-11-21T10:29:21;10.59;84.58
68912;SHT31;55953;51.650;-0.522;2023-11-21T10:31:50;10.64;84.46
68912;SHT31;55953;51.650;-0.522;2023-11-21T10:34:19;10.68;84.42
68912;SHT31;55953;51.650;-0.522;2023-11-21T10:36:48;10.70;84.47
68912;SHT31;55953;51.650;-0.522;2023-11-21T10:39:17;10.73;84.41
68912;SHT31;55953;51.650;-0.522;2023-11-21T10:41:47;10.72;84.44
68912;SHT31;55953;51.650;-0.522;2023-11-21T10:44:17;10.74;84.48
68912;SHT31;55953;51.650;-0.522;2023-11-21T10:46:50;10.80;84.40
68912;SHT31;55953;51.650;-0.522;2023-11-21T10:49:24;10.82;84.25
68912;SHT31;55953;51.650;-0.522;2023-11-21T10:51:54;10.87;84.18
68912;SHT31;55953;51.650;-0.522;2023-11-21T10:54:23;10.91;84.16
68912;SHT31;55953;51.650;-0.522;2023-11-21T10:56:56;10.95;84.24
68912;SHT31;55953;51.650;-0.522;2023-11-21T10:59:30;11.01;84.27
68912;SHT31;55953;51.650;-0.522;2023-11-21T11:02:01;11.01;84.32
68912;SHT31;55953;51.650;-0.522;2023-11-21T11:04:43;11.03;84.40
68912;SHT31;55953;51.650;-0.522;2023-11-21T11:07:13;11.09;84.55
68912;SHT31;55953;51.650;-0.522;2023-11-21T11:09:43;11.16;84.44
68912;SHT31;55953;51.650;-0.522;2023-11-21T11:12:12;11.23;84.34
68912;SHT31;55953;51.650;-0.522;2023-11-21T11:14:41;11.28;84.12
68912;SHT31;55953;51.650;-0.522;2023-11-21T11:17:11;11.37;83.98
68912;SHT31;55953;51.650;-0.522;2023-11-21T11:19:41;11.51;83.77
68912;SHT31;55953;51.650;-0.522;2023-11-21T11:22:19;11.55;83.33
68912;SHT31;55953;51.650;-0.522;2023-11-21T11:25:10;11.64;83.14
68912;SHT31;55953;51.650;-0.522;2023-11-21T11:28:20;11.73;83.57
68912;SHT31;55953;51.650;-0.522;2023-11-21T11:31:01;11.72;83.70
68912;SHT31;55953;51.650;-0.522;2023-11-21T11:33:41;11.57;84.13
68912;SHT31;55953;51.650;-0.522;2023-11-21T11:36:37;11.54;84.41
68912;SHT31;55953;51.650;-0.522;2023-11-21T11:42:12;11.55;84.26
68912;SHT31;55953;51.650;-0.522;2023-11-21T11:47:13;11.54;84.78
68912;SHT31;55953;51.650;-0.522;2023-11-21T11:52:48;11.40;84.90
68912;SHT31;55953;51.650;-0.522;2023-11-21T11:55:20;11.32;85.29
68912;SHT31;55953;51.650;-0.522;2023-11-21T11:57:50;11.31;85.43
68912;SHT31;55953;51.650;-0.522;2023-11-21T12:02:55;11.31;85.59
68912;SHT31;55953;51.650;-0.522;2023-11-21T12:05:28;11.28;85.88
68912;SHT31;55953;51.650;-0.522;2023-11-21T12:08:01;11.23;85.74
68912;SHT31;55953;51.650;-0.522;2023-11-21T12:10:32;11.20;85.83
68912;SHT31;55953;51.650;-0.522;2023-11-21T12:13:10;11.17;85.74
68912;SHT31;55953;51.650;-0.522;2023-11-21T12:15:42;11.08;86.25
68912;SHT31;55953;51.650;-0.522;2023-11-21T12:18:10;11.04;86.37
68912;SHT31;55953;51.650;-0.522;2023-11-21T12:20:38;11.00;86.31
68912;SHT31;55953;51.650;-0.522;2023-11-21T12:23:08;10.91;86.50
68912;SHT31;55953;51.650;-0.522;2023-11-21T12:25:37;10.89;86.74
68912;SHT31;55953;51.650;-0.522;2023-11-21T12:28:09;10.89;86.91
68912;SHT31;55953;51.650;-0.522;2023-11-21T12:30:38;10.86;86.87
68912;SHT31;55953;51.650;-0.522;2023-11-21T12:33:07;10.82;86.83
68912;SHT31;55953;51.650;-0.522;2023-11-21T12:35:37;10.79;86.96
68912;SHT31;55953;51.650;-0.522;2023-11-21T12:38:05;10.83;86.72
68912;SHT31;55953;51.650;-0.522;2023-11-21T12:40:33;10.81;85.67
68912;SHT31;55953;51.650;-0.522;2023-11-21T12:43:01;10.82;85.41
68912;SHT31;55953;51.650;-0.522;2023-11-21T12:45:31;10.86;85.12
68912;SHT31;55953;51.650;-0.522;2023-11-21T12:48:00;10.94;84.97
68912;SHT31;55953;51.650;-0.522;2023-11-21T12:50:35;10.95;84.65
68912;SHT31;55953;51.650;-0.522;2023-11-21T12:55:40;10.90;84.34
68912;SHT31;55953;51.650;-0.522;2023-11-21T12:58:10;10.94;84.42
68912;SHT31;55953;51.650;-0.522;2023-11-21T13:00:42;11.01;84.69
68912;SHT31;55953;51.650;-0.522;2023-11-21T13:03:13;10.95;84.50
68912;SHT31;55953;51.650;-0.522;2023-11-21T13:05:46;10.82;84.85
68912;SHT31;55953;51.650;-0.522;2023-11-21T13:08:21;10.78;85.05
68912;SHT31;55953;51.650;-0.522;2023-11-21T13:10:53;10.75;84.92
68912;SHT31;55953;51.650;-0.522;2023-11-21T13:13:25;10.74;84.76
68912;SHT31;55953;51.650;-0.522;2023-11-21T13:15:58;10.71;84.96
68912;SHT31;55953;51.650;-0.522;2023-11-21T13:18:34;10.66;85.14
68912;SHT31;55953;51.650;-0.522;2023-11-21T13:21:02;10.51;85.36
68912;SHT31;55953;51.650;-0.522;2023-11-21T13:23:41;10.44;85.90
68912;SHT31;55953;51.650;-0.522;2023-11-21T13:26:10;10.30;86.00
68912;SHT31;55953;51.650;-0.522;2023-11-21T13:28:39;10.20;86.26
68912;SHT31;55953;51.650;-0.522;2023-11-21T13:31:09;10.11;86.61
68912;SHT31;55953;51.650;-0.522;2023-11-21T13:33:48;9.97;86.63
68912;SHT31;55953;51.650;-0.522;2023-11-21T13:36:22;9.87;86.58
68912;SHT31;55953;51.650;-0.522;2023-11-21T13:38:52;9.85;86.64
68912;SHT31;55953;51.650;-0.522;2023-11-21T13:41:20;9.83;86.64
68912;SHT31;55953;51.650;-0.522;2023-11-21T13:43:56;9.82;86.47
68912;SHT31;55953;51.650;-0.522;2023-11-21T13:46:33;9.80;86.16
68912;SHT31;55953;51.650;-0.522;2023-11-21T13:49:05;9.79;85.68
68912;SHT31;55953;51.650;-0.522;2023-11-21T13:51:37;9.82;85.51
68912;SHT31;55953;51.650;-0.522;2023-11-21T13:54:12;9.84;85.27
68912;SHT31;55953;51.650;-0.522;2023-11-21T13:56:41;9.81;84.80
68912;SHT31;55953;51.650;-0.522;2023-11-21T13:59:12;9.77;84.83
68912;SHT31;55953;51.650;-0.522;2023-11-21T14:01:55;9.75;84.75
68912;SHT31;55953;51.650;-0.522;2023-11-21T14:04:31;9.72;84.97
68912;SHT31;55953;51.650;-0.522;2023-11-21T14:07:21;9.75;84.68
68912;SHT31;55953;51.650;-0.522;2023-11-21T14:10:03;9.75;84.58
68912;SHT31;55953;51.650;-0.522;2023-11-21T14:12:35;9.77;84.62
68912;SHT31;55953;51.650;-0.522;2023-11-21T14:15:06;9.75;84.38
68912;SHT31;55953;51.650;-0.522;2023-11-21T14:17:37;9.73;84.48
68912;SHT31;55953;51.650;-0.522;2023-11-21T14:20:07;9.73;84.50
68912;SHT31;55953;51.650;-0.522;2023-11-21T14:22:43;9.76;84.41
68912;SHT31;55953;51.650;-0.522;2023-11-21T14:25:11;9.77;84.25
68912;SHT31;55953;51.650;-0.522;2023-11-21T14:27:39;9.87;84.23
68912;SHT31;55953;51.650;-0.522;2023-11-21T14:30:07;9.92;83.97
68912;SHT31;55953;51.650;-0.522;2023-11-21T14:32:38;9.94;83.33
68912;SHT31;55953;51.650;-0.522;2023-11-21T14:35:07;9.95;83.20
68912;SHT31;55953;51.650;-0.522;2023-11-21T14:37:36;9.97;83.24
68912;SHT31;55953;51.650;-0.522;2023-11-21T14:40:04;9.97;82.66
68912;SHT31;55953;51.650;-0.522;2023-11-21T14:42:35;9.95;82.13
68912;SHT31;55953;51.650;-0.522;2023-11-21T14:45:07;9.94;82.03
68912;SHT31;55953;51.650;-0.522;2023-11-21T14:47:37;9.96;81.58
68912;SHT31;55953;51.650;-0.522;2023-11-21T14:50:06;10.02;81.39
68912;SHT31;55953;51.650;-0.522;2023-11-21T14:52:54;10.03;81.04
68912;SHT31;55953;51.650;-0.522;2023-11-21T14:55:27;10.09;81.41
68912;SHT31;55953;51.650;-0.522;2023-11-21T14:58:06;10.08;80.81
68912;SHT31;55953;51.650;-0.522;2023-11-21T15:00:39;10.09;80.69
68912;SHT31;55953;51.650;-0.522;2023-11-21T15:03:12;10.06;80.16
68912;SHT31;55953;51.650;-0.522;2023-11-21T15:05:59;10.08;80.54
68912;SHT31;55953;51.650;-0.522;2023-11-21T15:08:53;10.06;80.56
68912;SHT31;55953;51.650;-0.522;2023-11-21T15:11:35;10.03;80.52
68912;SHT31;55953;51.650;-0.522;2023-11-21T15:14:06;10.02;80.23
68912;SHT31;55953;51.650;-0.522;2023-11-21T15:16:37;10.02;79.82
68912;SHT31;55953;51.650;-0.522;2023-11-21T15:19:08;10.07;80.34
68912;SHT31;55953;51.650;-0.522;2023-11-21T15:21:37;10.06;79.87
68912;SHT31;55953;51.650;-0.522;2023-11-21T15:24:04;10.04;79.55
68912;SHT31;55953;51.650;-0.522;2023-11-21T15:26:33;10.00;79.30
68912;SHT31;55953;51.650;-0.522;2023-11-21T15:29:01;9.99;79.48
68912;SHT31;55953;51.650;-0.522;2023-11-21T15:31:29;9.98;79.78
68912;SHT31;55953;51.650;-0.522;2023-11-21T15:33:57;9.96;79.52
68912;SHT31;55953;51.650;-0.522;2023-11-21T15:36:27;9.95;79.88
68912;SHT31;55953;51.650;-0.522;2023-11-21T15:38:56;9.88;79.39
68912;SHT31;55953;51.650;-0.522;2023-11-21T15:41:24;9.77;79.31
68912;SHT31;55953;51.650;-0.522;2023-11-21T15:43:52;9.69;79.78
68912;SHT31;55953;51.650;-0.522;2023-11-21T15:46:20;9.59;80.07
68912;SHT31;55953;51.650;-0.522;2023-11-21T15:48:48;9.51;80.29
68912;SHT31;55953;51.650;-0.522;2023-11-21T15:51:22;9.46;80.39
68912;SHT31;55953;51.650;-0.522;2023-11-21T15:53:50;9.38;79.96